Portada
METAR-TAF:

METAR-TAF

Aeroports :

Fuzhou, Xina

latitud: 26-05N, longitud: 119-17E, altitud: 85 m

Observació

L'informe es va fer fa 21 minuts, a les 02:00 UTC
Vent 8 kt del Nord-Est
Temperatura 24°C
Humitat 78%
Pressió 1012 hPa
Visibilitat 10 km o més
Núvols disperses a una alçada de 1300 ft
Cel cobert a una alçada de 3600 ft

METAR: ZSFZ 270200Z 04004MPS 9999 SCT013 OVC036 24/20 Q1012 NOSIG

Hora: 10:21 (02:21 UTC)

Pronòstic

L'informe es va fer fa 5 hores i 18 minuts, a les 21:03 UTC
Pronòstic vàlid del 27 a les 00 UTC al 27 a les 24 UTC
Vent 8 kt del Nord-Est
Visibilitat: 3100 m
Cel ennuvolat a una alçada de 2000 ft
boirina

TAF: ZSFZ 262103Z 2700/2724 04004MPS 3100 BR BKN020 TX27/2706Z TN22/2721Z

Observacions i pronòstics meteorològics de més de 4000 aeroports (METAR i TAF).

Les estacions disponibles són els punts grocs i vermells al mapa.

Posi el ratolí al punt desitjat per veure el nom de l'estació.

Feu clic per veure les observacions i els pronòstics meteorològics.

Per canviar el mapa: feu clic els botons verds amb una creu de color negre per apropar; al botó verd amb un guió per allunyar la imatge; o en les fletxes verdes per a mapes adjacents.


METAR-TAF: